createdAt,value
2022-12-22T00:02:07.340Z,26.03
2022-12-22T00:06:28.447Z,21.87
2022-12-22T00:10:50.053Z,25.90
2022-12-22T00:15:10.338Z,23.70
2022-12-22T00:19:32.387Z,22.70
2022-12-22T00:23:52.878Z,23.83
2022-12-22T00:28:14.617Z,24.53
2022-12-22T00:32:34.902Z,27.63
2022-12-22T00:36:55.822Z,23.10
2022-12-22T00:41:16.205Z,25.67
2022-12-22T00:45:38.592Z,22.43
2022-12-22T00:50:02.757Z,24.47
2022-12-22T00:54:28.296Z,22.00
2022-12-22T00:58:48.564Z,22.03
2022-12-22T01:03:10.431Z,24.37
2022-12-22T01:07:32.581Z,23.83
2022-12-22T01:11:53.434Z,21.13
2022-12-22T01:16:13.635Z,22.80
2022-12-22T01:20:35.386Z,25.73
2022-12-22T01:24:55.643Z,28.30
2022-12-22T01:29:16.138Z,26.03
2022-12-22T01:33:36.390Z,23.73
2022-12-22T01:37:58.045Z,25.20
2022-12-22T01:42:18.420Z,24.93
2022-12-22T01:46:42.263Z,23.20
2022-12-22T01:51:02.593Z,25.13
2022-12-22T01:55:29.362Z,28.97
2022-12-22T01:59:49.608Z,26.33
2022-12-22T02:04:09.780Z,22.10
2022-12-22T02:08:38.588Z,21.87
2022-12-22T02:13:11.965Z,21.67
2022-12-22T02:17:42.679Z,26.00
2022-12-22T02:22:14.110Z,21.20
2022-12-22T02:26:43.884Z,20.93
2022-12-22T02:31:05.685Z,20.67
2022-12-22T02:35:31.019Z,21.23
2022-12-22T02:40:01.532Z,24.90
2022-12-22T02:44:40.506Z,25.87
2022-12-22T02:49:09.197Z,21.77
2022-12-22T02:53:32.135Z,22.63
2022-12-22T02:57:52.989Z,25.93
2022-12-22T03:02:15.138Z,25.47
2022-12-22T03:06:35.741Z,20.80
2022-12-22T03:10:56.087Z,23.27
2022-12-22T03:15:16.613Z,26.87
2022-12-22T03:19:38.093Z,26.60
2022-12-22T03:23:58.885Z,22.87
2022-12-22T03:28:04.053Z,24.93
2022-12-22T03:32:06.921Z,28.33
2022-12-22T03:36:11.850Z,21.30
2022-12-22T03:40:14.876Z,27.37
2022-12-22T03:44:34.999Z,24.70
2022-12-22T03:48:37.789Z,28.40
2022-12-22T03:52:41.930Z,27.77
2022-12-22T03:56:45.411Z,31.03
2022-12-22T04:00:49.024Z,34.10
2022-12-22T04:04:51.868Z,31.60
2022-12-22T04:08:56.125Z,28.17
2022-12-22T04:12:57.949Z,28.73
2022-12-22T04:17:00.957Z,31.00
2022-12-22T04:21:03.838Z,29.80
2022-12-22T04:25:09.155Z,29.00
2022-12-22T04:29:11.903Z,35.03
2022-12-22T04:33:14.753Z,31.67
2022-12-22T04:37:18.077Z,43.70
2022-12-22T04:41:22.316Z,35.40
2022-12-22T04:45:25.213Z,39.33
2022-12-22T04:49:28.063Z,37.07
2022-12-22T04:53:31.924Z,53.90
2022-12-22T04:57:40.741Z,35.80
2022-12-22T05:01:44.245Z,32.57
2022-12-22T05:05:47.259Z,53.10
2022-12-22T05:09:50.094Z,44.33
2022-12-22T05:13:54.252Z,59.10
2022-12-22T05:17:58.085Z,63.47
2022-12-22T05:22:00.951Z,64.43
2022-12-22T05:26:03.983Z,56.30
2022-12-22T05:30:09.842Z,63.37
2022-12-22T05:34:12.620Z,46.20
2022-12-22T05:38:15.371Z,38.17
2022-12-22T05:42:35.731Z,39.73
2022-12-22T05:46:40.135Z,57.77
2022-12-22T05:50:42.974Z,44.47
2022-12-22T05:54:46.188Z,57.90
2022-12-22T05:58:49.012Z,57.67
2022-12-22T06:02:53.273Z,59.97
2022-12-22T06:06:56.112Z,48.63
2022-12-22T06:10:59.767Z,49.70
2022-12-22T06:15:02.697Z,128.67
2022-12-22T06:19:07.015Z,64.17
2022-12-22T06:23:09.906Z,88.77
2022-12-22T06:27:12.880Z,46.57
2022-12-22T06:31:15.736Z,78.80
2022-12-22T06:35:19.989Z,159.13
2022-12-22T06:39:22.977Z,49.83
2022-12-22T06:43:26.377Z,208.23
2022-12-22T06:47:29.151Z,77.37
2022-12-22T06:51:33.278Z,162.10
2022-12-22T06:55:36.976Z,123.30
2022-12-22T06:59:40.217Z,76.00
2022-12-22T07:03:42.993Z,253.10
2022-12-22T07:07:47.263Z,191.17
2022-12-22T07:11:50.026Z,118.20
2022-12-22T07:16:00.166Z,149.93
2022-12-22T07:20:03.870Z,69.50
2022-12-22T07:24:08.862Z,83.33
2022-12-22T07:28:16.786Z,62.40
2022-12-22T07:32:23.385Z,53.93
2022-12-22T07:36:26.128Z,74.57
2022-12-22T07:40:30.343Z,58.63
2022-12-22T07:44:33.091Z,89.50
2022-12-22T07:48:53.665Z,80.10
2022-12-22T07:52:57.364Z,93.37
2022-12-22T07:57:01.518Z,87.40
2022-12-22T08:01:04.229Z,63.30
2022-12-22T08:05:09.006Z,67.70
2022-12-22T08:09:16.076Z,79.23
2022-12-22T08:13:20.542Z,59.47
2022-12-22T08:17:23.379Z,32.70
2022-12-22T08:21:26.172Z,71.17
2022-12-22T08:25:28.975Z,51.93
2022-12-22T08:29:36.602Z,43.13
2022-12-22T08:33:39.381Z,45.43
2022-12-22T08:37:45.650Z,34.43
2022-12-22T08:41:51.622Z,32.30
2022-12-22T08:45:55.865Z,36.30
2022-12-22T08:49:58.606Z,34.53
2022-12-22T08:54:04.897Z,28.63
2022-12-22T08:58:09.012Z,29.97
2022-12-22T09:02:13.296Z,36.30
2022-12-22T09:06:17.551Z,32.70
2022-12-22T09:10:20.462Z,29.23
2022-12-22T09:14:23.275Z,31.83
2022-12-22T09:18:27.400Z,25.80
2022-12-22T09:22:30.101Z,27.83
2022-12-22T09:26:33.458Z,31.37
2022-12-22T09:30:36.219Z,28.10
2022-12-22T09:34:40.522Z,33.97
2022-12-22T09:38:44.575Z,27.93
2022-12-22T09:42:49.441Z,29.07
2022-12-22T09:46:54.338Z,30.83
2022-12-22T09:50:59.216Z,32.13
2022-12-22T09:55:02.427Z,31.67
2022-12-22T09:59:11.307Z,28.83
2022-12-22T10:03:29.363Z,37.57
2022-12-22T10:07:35.257Z,35.57
2022-12-22T10:11:38.104Z,32.67
2022-12-22T10:15:42.553Z,33.17
2022-12-22T10:19:46.856Z,34.90
2022-12-22T10:23:51.234Z,33.10
2022-12-22T10:27:56.933Z,32.90
2022-12-22T10:32:02.943Z,39.07
2022-12-22T10:36:07.537Z,31.63
2022-12-22T10:40:17.671Z,33.20
2022-12-22T10:44:25.528Z,29.07
2022-12-22T10:48:33.363Z,32.23
2022-12-22T10:52:36.432Z,26.70
2022-12-22T10:56:40.992Z,29.00
2022-12-22T11:00:44.827Z,33.03
2022-12-22T11:04:48.190Z,30.23
2022-12-22T11:08:51.968Z,31.63
2022-12-22T11:13:24.920Z,30.33
2022-12-22T11:17:36.646Z,28.13
2022-12-22T11:21:46.344Z,33.00
2022-12-22T11:25:59.007Z,31.83
2022-12-22T11:30:11.841Z,30.03
2022-12-22T11:34:30.188Z,25.07
2022-12-22T11:38:47.369Z,26.53
2022-12-22T11:43:07.832Z,25.90
2022-12-22T11:47:27.279Z,32.23
2022-12-22T11:51:48.418Z,24.63
2022-12-22T11:56:06.528Z,24.10
2022-12-22T12:00:12.094Z,24.27
2022-12-22T12:04:38.429Z,18.67
2022-12-22T12:08:55.376Z,21.23
2022-12-22T12:13:10.416Z,23.30
2022-12-22T12:17:21.484Z,19.17
2022-12-22T12:21:29.638Z,22.10
2022-12-22T12:25:41.653Z,15.87
2022-12-22T12:30:06.463Z,15.63
2022-12-22T12:34:18.140Z,19.27
2022-12-22T12:39:06.191Z,17.50
2022-12-22T12:42:54.832Z,12.70
2022-12-22T12:47:21.356Z,14.47
2022-12-22T12:51:50.123Z,15.50
2022-12-22T12:55:57.231Z,12.23
2022-12-22T13:00:00.937Z,11.77
2022-12-22T13:04:05.287Z,9.10
2022-12-22T13:08:20.124Z,11.67
2022-12-22T13:12:40.662Z,11.60
2022-12-22T13:16:43.486Z,14.53
2022-12-22T13:20:54.251Z,12.10
2022-12-22T13:25:00.507Z,11.03
2022-12-22T13:29:10.829Z,9.83
2022-12-22T13:33:18.825Z,11.57
2022-12-22T13:37:23.418Z,14.10
2022-12-22T13:41:27.641Z,15.03
2022-12-22T13:45:35.677Z,12.83
2022-12-22T13:50:07.901Z,17.70
2022-12-22T13:54:14.168Z,16.47
2022-12-22T13:58:27.569Z,16.73
2022-12-22T14:02:33.847Z,16.70
2022-12-22T14:06:38.610Z,15.80
2022-12-22T14:10:45.327Z,20.67
2022-12-22T14:14:50.580Z,17.87
2022-12-22T14:18:54.947Z,18.67
2022-12-22T14:23:02.793Z,18.80
2022-12-22T14:27:05.863Z,16.60
2022-12-22T14:31:09.023Z,18.97
2022-12-22T14:35:25.613Z,17.77
2022-12-22T14:39:31.381Z,19.00
2022-12-22T14:43:34.229Z,19.73
2022-12-22T14:47:38.447Z,26.00
2022-12-22T14:51:42.726Z,23.07
2022-12-22T14:55:52.465Z,22.77
2022-12-22T15:00:06.416Z,26.10
2022-12-22T15:04:18.414Z,24.73
2022-12-22T15:08:39.035Z,22.20
2022-12-22T15:12:42.363Z,25.57
2022-12-22T15:16:46.423Z,25.10
2022-12-22T15:20:49.444Z,17.77
2022-12-22T15:24:53.864Z,20.70
2022-12-22T15:28:56.644Z,19.87
2022-12-22T15:32:59.471Z,21.93
2022-12-22T15:37:02.244Z,25.27
2022-12-22T15:41:07.254Z,22.50
2022-12-22T15:45:10.605Z,22.13
2022-12-22T15:49:17.613Z,23.87
2022-12-22T15:53:21.729Z,26.27
2022-12-22T15:57:25.930Z,21.60
2022-12-22T16:01:28.878Z,21.07
2022-12-22T16:05:31.927Z,25.03
2022-12-22T16:09:41.393Z,23.03
2022-12-22T16:13:46.442Z,27.10
2022-12-22T16:17:52.019Z,23.30
2022-12-22T16:21:55.182Z,24.97
2022-12-22T16:26:01.987Z,30.40
2022-12-22T16:30:12.933Z,25.90
2022-12-22T16:34:15.965Z,23.87
2022-12-22T16:38:19.580Z,24.93
2022-12-22T16:46:44.569Z,25.30
2022-12-22T16:50:48.622Z,29.43
2022-12-22T16:54:52.911Z,29.33
2022-12-22T16:58:56.071Z,28.73
2022-12-22T17:03:05.400Z,30.53
2022-12-22T17:07:08.386Z,36.33
2022-12-22T17:11:17.694Z,32.40
2022-12-22T17:15:22.474Z,36.10
2022-12-22T17:19:26.643Z,32.07
2022-12-22T17:23:33.283Z,30.40
2022-12-22T17:27:36.372Z,31.53
2022-12-22T17:31:39.229Z,33.60
2022-12-22T17:35:44.648Z,31.33
2022-12-22T17:39:50.545Z,35.37
2022-12-22T17:43:53.379Z,34.60
2022-12-22T17:47:56.180Z,33.20
2022-12-22T17:52:00.479Z,32.87
2022-12-22T17:56:08.639Z,34.77
2022-12-22T18:00:18.698Z,35.77
2022-12-22T18:04:22.036Z,32.83
2022-12-22T18:08:26.304Z,41.27
2022-12-22T18:12:29.844Z,34.63
2022-12-22T18:16:32.722Z,31.70
2022-12-22T18:20:35.647Z,36.43
2022-12-22T18:24:39.768Z,40.40
2022-12-22T18:28:43.348Z,40.10
2022-12-22T18:32:46.283Z,32.87
2022-12-22T18:36:49.433Z,32.90
2022-12-22T18:40:53.810Z,33.13
2022-12-22T18:44:56.640Z,32.50
2022-12-22T18:49:05.343Z,33.97
2022-12-22T18:53:19.441Z,28.73
2022-12-22T18:57:23.546Z,43.07
2022-12-22T19:01:27.998Z,35.17
2022-12-22T19:05:32.673Z,39.20
2022-12-22T19:09:35.751Z,39.40
2022-12-22T19:13:43.121Z,38.40
2022-12-22T19:17:46.053Z,43.77
2022-12-22T19:21:50.349Z,48.87
2022-12-22T19:25:56.166Z,42.90
2022-12-22T19:30:04.477Z,46.47
2022-12-22T19:34:15.580Z,33.50
2022-12-22T19:38:21.137Z,42.30
2022-12-22T19:42:25.755Z,45.83
2022-12-22T19:46:34.484Z,40.77
2022-12-22T19:50:37.286Z,41.47
2022-12-22T19:54:40.088Z,32.83
2022-12-22T19:58:42.960Z,42.43
2022-12-22T20:02:48.606Z,37.07
2022-12-22T20:06:51.510Z,30.40
2022-12-22T20:10:58.353Z,33.60
2022-12-22T20:15:02.400Z,36.63
2022-12-22T20:19:10.282Z,37.27
2022-12-22T20:23:16.139Z,29.43
2022-12-22T20:27:22.204Z,43.57
2022-12-22T20:31:26.129Z,40.03
2022-12-22T20:35:30.437Z,36.03
2022-12-22T20:39:33.238Z,47.27
2022-12-22T20:43:37.924Z,30.87
2022-12-22T20:47:40.873Z,40.13
2022-12-22T20:51:45.015Z,31.33
2022-12-22T20:55:48.997Z,29.17
2022-12-22T20:59:56.049Z,26.83
2022-12-22T21:03:59.579Z,30.50
2022-12-22T21:08:03.825Z,19.67
2022-12-22T21:12:07.157Z,23.13
2022-12-22T21:16:14.266Z,21.80
2022-12-22T21:20:20.498Z,22.53
2022-12-22T21:24:24.656Z,24.77
2022-12-22T21:28:32.721Z,52.43
2022-12-22T21:32:35.433Z,23.57
2022-12-22T21:36:39.207Z,34.47
2022-12-22T21:40:46.520Z,31.27
2022-12-22T21:44:50.542Z,23.83
2022-12-22T21:48:53.288Z,17.93
2022-12-22T21:52:56.185Z,15.50
2022-12-22T21:57:00.404Z,19.03
2022-12-22T22:01:03.223Z,17.47
2022-12-22T22:05:06.548Z,19.03
2022-12-22T22:09:09.463Z,17.83
2022-12-22T22:13:15.991Z,21.03
2022-12-22T22:17:18.790Z,16.97
2022-12-22T22:21:21.617Z,19.93
2022-12-22T22:25:25.012Z,17.73
2022-12-22T22:29:29.116Z,20.73
2022-12-22T22:33:31.850Z,21.57
2022-12-22T22:37:34.641Z,19.17
2022-12-22T22:41:42.928Z,19.47
2022-12-22T22:45:47.771Z,16.77
2022-12-22T22:49:50.536Z,19.33
2022-12-22T22:53:53.324Z,19.53
2022-12-22T22:57:56.138Z,18.47
2022-12-22T23:02:00.443Z,19.47
2022-12-22T23:06:03.785Z,16.23
2022-12-22T23:10:07.291Z,18.97
2022-12-22T23:14:12.703Z,20.23
2022-12-22T23:18:16.827Z,21.77
2022-12-22T23:22:19.611Z,19.00
2022-12-22T23:26:22.579Z,20.47
2022-12-22T23:30:25.377Z,21.87
2022-12-22T23:34:29.792Z,18.17
2022-12-22T23:38:33.233Z,20.20
2022-12-22T23:42:35.992Z,21.37
2022-12-22T23:46:38.851Z,16.77
2022-12-22T23:50:46.198Z,18.27
2022-12-22T23:54:49.034Z,19.47
2022-12-22T23:58:54.943Z,16.33
